Gao, Mali
Current Conditions -  °F | °C
As of 9:00 AM on Thursday 27 Nov 2014 (Local Time) from DRRN Reporting Station
Sand / Dust Storm Sand / Dust Storm  
Wind Chill: 82°   Ceiling: Unl
Heat Index: 82°   Visibility: 2.1mi
Dew Point: 34°   Wind: 7mph
Humidity: 17%   Direction: 110°ESE
Pressure: 29.94"   Gusts: NA
Location:  16.27°N, 0.05°W
Report Text: DRRN 270900Z 11006KT 080V140 3500 DU NSC 28/01 Q1014 NOSIG
Loading
Personal Weather Stations






























Interactive Weather Map New forecast layout! Learn more

10-Day Weather Forecast

Advertisements
Track Severe Weather on mobile